createdAt,value
2023-02-23T00:02:09.622Z,18.80
2023-02-23T00:04:38.548Z,16.90
2023-02-23T00:07:08.434Z,18.37
2023-02-23T00:09:36.786Z,18.20
2023-02-23T00:12:08.690Z,17.60
2023-02-23T00:14:39.012Z,18.40
2023-02-23T00:17:14.177Z,16.80
2023-02-23T00:19:43.508Z,18.57
2023-02-23T00:22:13.639Z,16.00
2023-02-23T00:24:42.417Z,16.00
2023-02-23T00:27:12.793Z,16.90
2023-02-23T00:29:40.990Z,18.30
2023-02-23T00:32:09.600Z,17.13
2023-02-23T00:34:38.490Z,14.70
2023-02-23T00:37:08.644Z,15.60
2023-02-23T00:39:38.242Z,16.07
2023-02-23T00:42:07.595Z,16.80
2023-02-23T00:44:36.159Z,16.17
2023-02-23T00:47:04.724Z,16.80
2023-02-23T00:49:33.017Z,15.77
2023-02-23T00:52:05.555Z,17.03
2023-02-23T00:54:37.914Z,14.90
2023-02-23T00:57:09.225Z,15.23
2023-02-23T00:59:37.734Z,16.20
2023-02-23T01:02:08.124Z,14.40
2023-02-23T01:04:36.689Z,18.57
2023-02-23T01:07:06.608Z,16.43
2023-02-23T01:09:35.250Z,16.80
2023-02-23T01:12:08.260Z,16.10
2023-02-23T01:14:38.424Z,14.97
2023-02-23T01:17:07.623Z,16.07
2023-02-23T01:19:38.241Z,16.70
2023-02-23T01:22:06.702Z,16.17
2023-02-23T01:24:34.965Z,15.67
2023-02-23T01:27:07.467Z,15.50
2023-02-23T01:29:38.712Z,16.10
2023-02-23T01:32:09.004Z,15.03
2023-02-23T01:34:37.394Z,16.43
2023-02-23T01:37:05.800Z,17.53
2023-02-23T01:39:34.631Z,20.63
2023-02-23T01:42:05.423Z,18.37
2023-02-23T01:45:25.714Z,18.70
2023-02-23T01:48:01.666Z,18.30
2023-02-23T01:50:38.544Z,17.23
2023-02-23T01:53:10.939Z,16.40
2023-02-23T01:55:40.049Z,16.73
2023-02-23T01:58:16.558Z,17.53
2023-02-23T02:00:50.620Z,16.40
2023-02-23T02:03:33.124Z,17.70
2023-02-23T02:06:05.403Z,16.63
2023-02-23T02:08:43.252Z,17.60
2023-02-23T02:11:25.971Z,19.20
2023-02-23T02:13:57.369Z,17.47
2023-02-23T02:16:55.164Z,18.73
2023-02-23T02:20:15.270Z,16.20
2023-02-23T02:23:42.123Z,18.50
2023-02-23T02:26:25.424Z,16.90
2023-02-23T02:30:01.733Z,18.03
2023-02-23T02:33:11.051Z,17.33
2023-02-23T02:36:31.611Z,15.30
2023-02-23T02:39:22.846Z,18.23
2023-02-23T02:42:00.775Z,18.00
2023-02-23T02:44:38.073Z,18.90
2023-02-23T02:51:18.554Z,17.10
2023-02-23T02:57:13.752Z,16.17
2023-02-23T03:37:27.341Z,18.37
2023-02-23T03:40:24.617Z,17.33
2023-02-23T03:43:13.455Z,19.60
2023-02-23T03:46:02.725Z,19.20
2023-02-23T06:27:14.078Z,21.47
2023-02-23T06:29:46.855Z,19.60
2023-02-23T08:52:09.581Z,20.77
2023-02-23T08:54:41.324Z,20.90
2023-02-23T08:57:12.464Z,19.60
2023-02-23T08:59:41.229Z,23.50
2023-02-23T09:02:14.246Z,20.90
2023-02-23T09:04:46.228Z,19.50
2023-02-23T09:07:18.253Z,18.87
2023-02-23T09:09:48.018Z,17.53
2023-02-23T09:12:16.246Z,17.77
2023-02-23T09:14:44.563Z,18.73
2023-02-23T09:17:12.925Z,20.70
2023-02-23T09:19:41.621Z,21.10
2023-02-23T09:22:10.236Z,22.20
2023-02-23T09:24:38.753Z,19.43
2023-02-23T09:27:08.428Z,17.20
2023-02-23T09:29:38.066Z,17.63
2023-02-23T09:32:07.051Z,18.07
2023-02-23T09:34:37.402Z,18.13
2023-02-23T09:37:06.469Z,16.07
2023-02-23T09:39:38.492Z,16.70
2023-02-23T09:42:24.817Z,17.07
2023-02-23T09:45:11.309Z,16.33
2023-02-23T09:47:53.182Z,16.00
2023-02-23T09:50:26.059Z,13.80
2023-02-23T09:53:00.910Z,14.20
2023-02-23T09:55:30.660Z,14.13
2023-02-23T09:58:08.037Z,15.07
2023-02-23T10:00:43.125Z,12.90
2023-02-23T10:03:31.974Z,13.57
2023-02-23T10:06:03.407Z,13.00
2023-02-23T10:08:52.894Z,14.63
2023-02-23T10:11:30.247Z,14.30
2023-02-23T10:14:20.482Z,13.13
2023-02-23T10:17:06.055Z,13.10
2023-02-23T10:19:44.467Z,13.83
2023-02-23T10:22:15.763Z,12.93
2023-02-23T10:24:49.471Z,12.70
2023-02-23T10:27:20.628Z,11.17
2023-02-23T10:29:54.831Z,11.50
2023-02-23T10:32:31.617Z,12.07
2023-02-23T10:35:01.880Z,9.27
2023-02-23T10:37:30.679Z,8.80
2023-02-23T10:39:59.162Z,7.90
2023-02-23T10:42:30.086Z,8.37
2023-02-23T10:45:02.671Z,8.27
2023-02-23T10:48:12.792Z,7.13
2023-02-23T10:50:49.419Z,6.67
2023-02-23T10:53:30.300Z,6.73
2023-02-23T10:56:07.167Z,5.50
2023-02-23T11:02:31.163Z,4.30
2023-02-23T11:05:30.536Z,3.90
2023-02-23T11:08:30.396Z,4.93
2023-02-23T11:11:09.896Z,4.87
2023-02-23T11:13:44.304Z,4.67
2023-02-23T11:16:15.738Z,3.20
2023-02-23T11:18:54.482Z,4.27
2023-02-23T11:21:33.438Z,4.30
2023-02-23T11:24:18.731Z,3.90
2023-02-23T11:26:51.901Z,4.37
2023-02-23T11:29:28.488Z,4.17
2023-02-23T11:31:59.511Z,3.80
2023-02-23T11:34:33.785Z,3.80
2023-02-23T11:37:06.792Z,4.13
2023-02-23T11:39:38.706Z,4.00
2023-02-23T11:42:19.080Z,4.70
2023-02-23T11:44:53.219Z,4.50
2023-02-23T11:47:24.310Z,4.40
2023-02-23T11:49:56.916Z,4.53
2023-02-23T11:52:28.048Z,4.20
2023-02-23T11:54:59.543Z,4.67
2023-02-23T11:57:31.881Z,4.90
2023-02-23T12:00:03.819Z,4.50
2023-02-23T12:02:51.518Z,4.70
2023-02-23T12:05:27.505Z,4.73
2023-02-23T12:08:04.329Z,4.27
2023-02-23T12:10:40.483Z,4.73
2023-02-23T12:13:27.274Z,5.10
2023-02-23T12:16:07.840Z,4.63
2023-02-23T12:18:46.302Z,5.80
2023-02-23T12:21:33.597Z,4.20
2023-02-23T12:24:46.931Z,3.97
2023-02-23T12:27:19.945Z,4.17
2023-02-23T12:30:09.300Z,4.77
2023-02-23T12:32:47.756Z,3.23
2023-02-23T12:35:23.563Z,4.77
2023-02-23T12:37:59.945Z,3.97
2023-02-23T12:40:50.443Z,4.20
2023-02-23T12:43:24.671Z,4.40
2023-02-23T12:45:57.223Z,3.73
2023-02-23T12:48:40.670Z,4.53
2023-02-23T12:51:34.005Z,5.13
2023-02-23T12:54:07.603Z,3.93
2023-02-23T12:57:03.097Z,4.40
2023-02-23T13:00:01.730Z,3.53
2023-02-23T13:02:36.748Z,3.40
2023-02-23T13:05:42.086Z,2.83
2023-02-23T13:08:30.484Z,4.00
2023-02-23T13:11:21.115Z,3.90
2023-02-23T13:13:56.921Z,3.40
2023-02-23T13:16:31.953Z,3.03
2023-02-23T13:19:10.305Z,4.17
2023-02-23T13:21:47.483Z,2.63
2023-02-23T13:24:20.612Z,3.50
2023-02-23T13:26:56.985Z,3.07
2023-02-23T13:29:34.864Z,3.80
2023-02-23T13:32:06.710Z,3.57
2023-02-23T13:34:40.809Z,3.30
2023-02-23T13:37:10.572Z,4.23
2023-02-23T13:40:02.726Z,3.37
2023-02-23T13:42:45.239Z,4.60
2023-02-23T13:45:33.553Z,4.43
2023-02-23T13:48:12.652Z,3.80
2023-02-23T13:50:50.635Z,4.63
2023-02-23T13:53:46.835Z,4.90
2023-02-23T13:56:20.095Z,3.97
2023-02-23T13:58:57.685Z,11.00
2023-02-23T14:01:32.503Z,4.40
2023-02-23T14:04:04.410Z,4.10
2023-02-23T14:06:35.717Z,3.40
2023-02-23T14:09:12.671Z,3.47
2023-02-23T14:11:49.674Z,3.30
2023-02-23T14:14:45.659Z,3.70
2023-02-23T14:17:43.833Z,3.43
2023-02-23T14:20:29.898Z,5.90
2023-02-23T14:23:34.656Z,4.10
2023-02-23T14:26:37.806Z,4.70
2023-02-23T14:29:32.255Z,4.10
2023-02-23T14:32:28.453Z,4.17
2023-02-23T14:34:59.231Z,3.50
2023-02-23T14:37:32.518Z,3.83
2023-02-23T14:40:13.724Z,3.37
2023-02-23T14:42:45.899Z,3.70
2023-02-23T14:45:25.643Z,4.03
2023-02-23T14:48:00.140Z,3.77
2023-02-23T14:50:33.759Z,3.70
2023-02-23T14:53:04.435Z,3.70
2023-02-23T14:55:35.430Z,3.17
2023-02-23T14:58:05.204Z,3.93
2023-02-23T15:00:43.320Z,3.80
2023-02-23T15:03:14.066Z,4.13
2023-02-23T15:05:51.240Z,4.70
2023-02-23T15:08:23.571Z,4.10
2023-02-23T15:11:00.275Z,4.40
2023-02-23T15:13:31.348Z,4.90
2023-02-23T15:16:04.446Z,5.00
2023-02-23T15:18:40.466Z,4.30
2023-02-23T15:21:13.996Z,4.43
2023-02-23T15:23:46.098Z,4.00
2023-02-23T15:26:24.258Z,4.43
2023-02-23T15:28:53.134Z,3.50
2023-02-23T15:31:21.809Z,3.33
2023-02-23T15:33:52.013Z,4.63
2023-02-23T15:36:27.704Z,3.23
2023-02-23T15:38:59.740Z,3.60
2023-02-23T15:41:32.388Z,3.57
2023-02-23T15:44:13.127Z,3.30
2023-02-23T15:46:53.503Z,3.70
2023-02-23T15:49:31.039Z,4.27
2023-02-23T15:52:03.053Z,4.43
2023-02-23T15:54:36.622Z,4.50
2023-02-23T15:57:14.103Z,4.27
2023-02-23T15:59:42.378Z,4.47
2023-02-23T16:02:19.296Z,4.47
2023-02-23T16:04:54.013Z,4.53
2023-02-23T16:07:25.808Z,4.53
2023-02-23T16:09:57.135Z,4.10
2023-02-23T16:12:32.196Z,4.23
2023-02-23T16:15:03.215Z,4.33
2023-02-23T16:17:41.432Z,5.17
2023-02-23T16:20:18.808Z,3.93
2023-02-23T16:22:55.013Z,5.60
2023-02-23T16:25:28.230Z,4.57
2023-02-23T16:28:04.227Z,4.43
2023-02-23T16:30:42.957Z,4.90
2023-02-23T16:33:22.690Z,5.63
2023-02-23T16:36:06.305Z,5.57
2023-02-23T16:38:38.931Z,5.10
2023-02-23T16:44:43.812Z,5.80
2023-02-23T16:47:56.051Z,4.70
2023-02-23T16:54:13.956Z,4.90
2023-02-23T17:00:21.116Z,4.43
2023-02-23T17:03:23.178Z,5.43
2023-02-23T17:06:12.747Z,5.43
2023-02-23T17:08:52.170Z,6.33
2023-02-23T17:12:22.414Z,7.33
2023-02-23T17:15:16.171Z,6.90
2023-02-23T17:17:44.887Z,6.23
2023-02-23T17:20:17.418Z,6.40
2023-02-23T17:23:21.570Z,6.97
2023-02-23T17:26:16.243Z,5.60
2023-02-23T17:29:26.080Z,5.80
2023-02-23T17:31:58.056Z,5.67
2023-02-23T17:34:33.608Z,5.87
2023-02-23T17:37:25.910Z,6.77
2023-02-23T17:39:57.610Z,6.40
2023-02-23T17:42:35.276Z,6.23
2023-02-23T17:45:08.184Z,6.10
2023-02-23T17:47:40.086Z,5.60
2023-02-23T17:50:10.071Z,7.07
2023-02-23T17:52:38.907Z,6.97
2023-02-23T17:55:08.824Z,7.43
2023-02-23T17:57:37.134Z,7.23
2023-02-23T18:00:12.647Z,7.10
2023-02-23T18:02:45.024Z,6.90
2023-02-23T18:05:15.469Z,8.50
2023-02-23T18:07:45.518Z,7.50
2023-02-23T18:10:16.973Z,7.43
2023-02-23T18:12:46.047Z,7.00
2023-02-23T18:15:17.408Z,8.50
2023-02-23T18:17:45.744Z,7.60
2023-02-23T18:20:16.391Z,8.30
2023-02-23T18:22:45.656Z,9.50
2023-02-23T18:25:22.658Z,8.37
2023-02-23T18:27:54.154Z,7.30
2023-02-23T18:30:27.043Z,6.77
2023-02-23T18:33:00.684Z,7.33
2023-02-23T18:35:29.268Z,7.40
2023-02-23T18:37:57.520Z,7.23
2023-02-23T18:40:26.015Z,8.43
2023-02-23T18:42:54.458Z,9.13
2023-02-23T18:45:24.173Z,9.27
2023-02-23T18:47:52.577Z,9.20
2023-02-23T18:50:21.912Z,8.73
2023-02-23T18:52:51.741Z,8.93
2023-02-23T18:55:22.203Z,66.60
2023-02-23T18:57:52.812Z,15.10
2023-02-23T19:00:22.694Z,10.10
2023-02-23T19:02:53.775Z,10.00
2023-02-23T19:05:22.540Z,9.80
2023-02-23T19:07:51.098Z,8.20
2023-02-23T19:10:20.071Z,9.47
2023-02-23T19:12:48.342Z,10.80
2023-02-23T19:15:16.580Z,8.57
2023-02-23T19:17:46.446Z,8.27
2023-02-23T19:20:17.693Z,12.57
2023-02-23T19:22:46.902Z,13.07
2023-02-23T19:25:15.524Z,12.07
2023-02-23T19:27:44.035Z,10.63
2023-02-23T19:30:14.638Z,10.70
2023-02-23T19:32:44.333Z,9.90
2023-02-23T19:35:15.746Z,8.73
2023-02-23T19:37:51.318Z,7.77
2023-02-23T19:40:22.797Z,8.53
2023-02-23T19:42:53.196Z,7.70
2023-02-23T19:45:24.804Z,8.50
2023-02-23T19:47:55.947Z,7.97
2023-02-23T19:50:32.652Z,8.17
2023-02-23T19:53:04.794Z,9.60
2023-02-23T19:55:33.293Z,8.70
2023-02-23T19:58:03.624Z,9.03
2023-02-23T20:00:33.019Z,8.60
2023-02-23T20:03:33.633Z,8.43
2023-02-23T20:06:14.045Z,8.30
2023-02-23T20:08:46.296Z,7.33
2023-02-23T20:11:15.631Z,8.60
2023-02-23T20:13:50.865Z,7.90
2023-02-23T20:16:19.640Z,9.80
2023-02-23T20:18:48.598Z,9.60
2023-02-23T20:21:23.160Z,7.87
2023-02-23T20:27:09.048Z,13.73
2023-02-23T20:29:39.972Z,8.70
2023-02-23T20:32:08.729Z,8.30
2023-02-23T20:34:39.191Z,8.23
2023-02-23T20:37:07.498Z,7.80
2023-02-23T20:39:37.067Z,7.97
2023-02-23T20:42:05.824Z,8.70
2023-02-23T20:44:38.402Z,7.23
2023-02-23T20:47:08.947Z,7.83
2023-02-23T20:49:37.381Z,7.97
2023-02-23T20:52:07.787Z,10.20
2023-02-23T20:54:39.913Z,9.70
2023-02-23T20:57:09.022Z,9.93
2023-02-23T20:59:38.025Z,9.23
2023-02-23T21:02:11.823Z,9.60
2023-02-23T21:04:45.240Z,26.80
2023-02-23T21:07:15.176Z,13.00
2023-02-23T21:09:45.540Z,11.13
2023-02-23T21:12:36.540Z,13.87
2023-02-23T21:15:29.760Z,11.73
2023-02-23T21:18:01.447Z,12.20
2023-02-23T21:20:34.090Z,9.50
2023-02-23T21:23:04.291Z,8.77
2023-02-23T21:25:35.267Z,9.73
2023-02-23T21:32:24.011Z,11.00
2023-02-23T21:39:51.332Z,9.43
2023-02-23T21:45:24.473Z,9.37
2023-02-23T21:48:05.010Z,9.03
2023-02-23T21:50:33.419Z,8.90
2023-02-23T21:53:03.688Z,9.20
2023-02-23T21:55:33.925Z,10.30
2023-02-23T21:58:42.398Z,9.13
2023-02-23T22:01:19.362Z,8.30
2023-02-23T22:04:44.550Z,9.27
2023-02-23T22:07:14.323Z,9.33
2023-02-23T22:09:42.553Z,8.10
2023-02-23T22:12:10.994Z,8.80
2023-02-23T22:15:31.462Z,10.13
2023-02-23T22:18:02.422Z,9.30
2023-02-23T22:20:30.575Z,10.20
2023-02-23T22:23:04.682Z,8.87
2023-02-23T22:25:32.884Z,9.23
2023-02-23T22:28:01.988Z,9.13
2023-02-23T22:30:30.985Z,9.40
2023-02-23T22:33:00.878Z,10.43
2023-02-23T22:35:31.503Z,12.40
2023-02-23T22:38:01.635Z,13.83
2023-02-23T22:40:29.938Z,12.40
2023-02-23T22:42:59.232Z,10.70
2023-02-23T22:45:31.900Z,11.33
2023-02-23T22:48:02.855Z,10.67
2023-02-23T22:50:31.092Z,9.93
2023-02-23T22:52:59.366Z,12.00
2023-02-23T22:55:29.217Z,10.77
2023-02-23T22:57:57.665Z,10.70
2023-02-23T23:00:27.324Z,10.40
2023-02-23T23:02:56.430Z,10.70
2023-02-23T23:05:26.939Z,9.30
2023-02-23T23:07:56.689Z,9.83
2023-02-23T23:10:25.145Z,10.03
2023-02-23T23:12:56.287Z,13.53
2023-02-23T23:15:24.652Z,11.80
2023-02-23T23:17:53.067Z,10.17
2023-02-23T23:20:26.644Z,11.10
2023-02-23T23:22:57.717Z,10.23
2023-02-23T23:25:28.262Z,10.17
2023-02-23T23:27:57.765Z,11.67
2023-02-23T23:30:29.956Z,11.10
2023-02-23T23:33:00.005Z,11.03
2023-02-23T23:35:28.768Z,11.00
2023-02-23T23:38:01.613Z,10.80
2023-02-23T23:40:35.637Z,11.57
2023-02-23T23:43:07.518Z,13.20
2023-02-23T23:45:38.305Z,12.70
2023-02-23T23:48:09.524Z,11.80
2023-02-23T23:50:42.335Z,12.53
2023-02-23T23:53:12.279Z,12.60
2023-02-23T23:55:40.597Z,14.17
2023-02-23T23:58:08.830Z,12.33
